KXNA/XNA METAR and TAF weather

Enter ICAO airport designator
Station Type Date Time Source
KXNA METAR 2021/09/28 15:53 UTC NOAA

KXNA 281553Z 00000KT 10SM CLR 26/17 A2998 RMK AO2 SLP138 T02560167


Station Type Date Time Source
KXNA Decoded METAR 2021/09/28 15:53 UTC NOAA

NORTHWEST ARKANSAS REGIONAL, AR, United States (KXNA) 36-17N 94-18W
Sep 28, 2021 - 11:53 AM EDT / 2021.09.28 1553 UTC
Wind: Calm:0
Visibility: 10 mile(s):0
Sky conditions: clear
Temperature: 78.1 F (25.6 C)
Dew Point: 62.1 F (16.7 C)
Relative Humidity: 57%
Pressure (altimeter): 29.98 in. Hg (1015 hPa)
ob: KXNA 281553Z 00000KT 10SM CLR 26/17 A2998 RMK AO2 SLP138 T02560167
cycle: 16

Station Type Date Time Source
KXNA TAF 2021/09/28 12:22 UTC NOAA

TAF KXNA 281120Z 2812/2912 VRB03KT P6SM SCT250
FM281600 18009KT P6SM SCT070 SCT250
FM290100 15005KT P6SM FEW070 BKN200

Example: see airport list